Beiseker, Canada
Current Conditions -  °F | °C
As of 12:44 AM on Saturday 29 Nov 2014 (Local Time) from CYYC Reporting Station
Light Snow Light Snow  
Wind Chill: -33°   Ceiling: 2300
Heat Index: -9°   Visibility: 4mi
Dew Point: -17°   Wind: 17mph
Humidity: 71%   Direction: 340°NNW
Pressure: 29.69"   Gusts: 24mph
Location:  51.38°N, 113.53°W
Report Text: CYYC 290744Z 34015G21KT 4SM -SN BLSN FEW008 BKN023 OVC081 M23/M27 A2969 RMK SC2SC3AC3 SLP161
Loading
Personal Weather Stations






























Interactive Weather Map New forecast layout! Learn more

10-Day Weather Forecast

Advertisements
Track Severe Weather on mobile